»·PEaware :: N224LW KTOA-KPSP

N224LW :: KTOA-KPSP

FLIGHT INFORMATION

Flight Status: Arrived
Operator: Privately registered:
United States
More flights under this callsign
Pilot: Rod T. (6553)
Aircraft: Unknown
(S22T)
More flights by this aircraft type
Origin: KTOA Zamperini
United States
Destination: KPSP Palm Springs Intl
United States
More flights between these airports :: More routes between these airports
Route: +LAX170 LIMBO V8 PDZ V388 DEWAY
File this flight plan on PilotEdge
Remarks:
Altitude:
(Current/Filed)
11,000ft
Speed:
(Current/Filed)
180kts
Departed: 09-Oct-17 08:28 PM
Arrived: 09-Oct-17 09:09 PM
Distance/Time
Traveled:
92nm/0:41
Distance/Time
To Go:
Arrived

Flight Plot

Page will automatically refresh every two minutes.

Flight plan parsing failed; only flown route is shown


Map Options




Map Legend


Flown Route
Filed Route
Departure Airport
Arrival Airport
Navaid (VOR, NDB)
Fix

Horizontal Profiles

Position Reports

Time Latitude Longitude Heading Altitude Ground
Speed
09-Oct-17 20:23 33.801600 -118.341418 218 105ft 0kts
09-Oct-17 20:24 33.801600 -118.341418 218 105ft 0kts
09-Oct-17 20:25 33.801395 -118.341313 115 105ft 6kts
09-Oct-17 20:26 33.801398 -118.341190 61 105ft 0kts
09-Oct-17 20:27 33.801380 -118.340972 130 105ft 8kts
09-Oct-17 20:28 33.801017 -118.339058 126 105ft 12kts
09-Oct-17 20:29 33.798099 -118.334269 54 105ft 10kts
09-Oct-17 20:30 33.798906 -118.333119 332 105ft 0kts
09-Oct-17 20:31 33.798908 -118.333121 331 105ft 0kts
09-Oct-17 20:32 33.805488 -118.341825 309 324ft 94kts
09-Oct-17 20:33 33.822943 -118.366456 309 1754ft 102kts
09-Oct-17 20:34 33.844728 -118.396876 307 2805ft 134kts
09-Oct-17 20:36 33.841882 -118.430499 175 3767ft 138kts
09-Oct-17 20:37 33.833754 -118.394620 89 4961ft 132kts
09-Oct-17 20:38 33.836615 -118.350150 83 6183ft 136kts
09-Oct-17 20:39 33.841961 -118.303802 85 7397ft 147kts
09-Oct-17 20:40 33.846101 -118.260283 84 8448ft 154kts
09-Oct-17 20:41 33.850527 -118.209521 81 9743ft 154kts
09-Oct-17 20:42 33.855769 -118.157932 81 10936ft 158kts
09-Oct-17 20:43 33.861700 -118.100507 82 10994ft 175kts
09-Oct-17 20:44 33.867760 -118.040506 81 10995ft 187kts
09-Oct-17 20:45 33.874078 -117.977742 81 11016ft 191kts
09-Oct-17 20:46 33.880459 -117.913979 81 11021ft 193kts
09-Oct-17 20:47 33.886860 -117.849633 81 11021ft 194kts
09-Oct-17 20:48 33.893227 -117.785273 81 11021ft 194kts
09-Oct-17 20:49 33.899589 -117.720612 81 10994ft 194kts
09-Oct-17 20:50 33.905882 -117.656297 81 10994ft 194kts
09-Oct-17 20:51 33.912122 -117.592183 81 11005ft 193kts
09-Oct-17 20:52 33.918253 -117.527994 84 11020ft 194kts
09-Oct-17 20:53 33.920818 -117.463001 85 11021ft 194kts
09-Oct-17 20:54 33.923474 -117.398089 85 11021ft 194kts
09-Oct-17 20:55 33.926121 -117.332801 86 11020ft 195kts
09-Oct-17 20:56 33.928720 -117.267712 86 11020ft 194kts
09-Oct-17 20:57 33.931293 -117.202580 86 11020ft 195kts
09-Oct-17 20:58 33.933820 -117.137567 86 11020ft 195kts
09-Oct-17 20:59 33.936319 -117.072239 86 11020ft 195kts
09-Oct-17 21:00 33.938847 -117.005562 86 10665ft 207kts
09-Oct-17 21:01 33.941720 -116.935545 87 9976ft 209kts
09-Oct-17 21:02 33.944268 -116.866271 87 9277ft 205kts
09-Oct-17 21:03 33.946636 -116.800792 87 9163ft 188kts
09-Oct-17 21:03 33.948146 -116.747728 86 8982ft 192kts
09-Oct-17 21:05 33.933770 -116.698482 111 8974ft 192kts
09-Oct-17 21:06 33.913552 -116.638423 111 8768ft 202kts
09-Oct-17 21:07 33.892868 -116.573049 111 7989ft 211kts
09-Oct-17 21:07 33.877073 -116.519472 111 7177ft 190kts
09-Oct-17 21:08 33.852862 -116.471392 141 6061ft 163kts
09-Oct-17 21:09 33.817005 -116.440743 142 4945ft 150kts
09-Oct-17 21:10 33.781406 -116.430026 226 3024ft 154kts
09-Oct-17 21:11 33.794820 -116.468461 299 1088ft 111kts
09-Oct-17 21:13 33.816473 -116.492998 321 685ft 81kts
09-Oct-17 21:13 33.829466 -116.504615 324 479ft 37kts
09-Oct-17 21:14 33.829998 -116.504384 58 479ft 0kts
09-Oct-17 21:15 33.829998 -116.504384 58 479ft 0kts
09-Oct-17 21:16 33.825346 -116.499920 142 479ft 36kts

Navigation Log

Ident Type
Flight plan parsing failed, navigation log unavailable